Time;durP1;ratioP1;P1;durP2;ratioP2;P2;SDS_P1;SDS_P2;PMS_P1;PMS_P2;Temp;Humidity;BMP_temperature;BMP_pressure;BME280_temperature;BME280_humidity;BME280_pressure;Samples;Min_cycle;Max_cycle;Signal;HPM_P1;HPM_P2
2023/09/09 00:01:35;;;;;;;41.15;35.65;;;16.70;99.90;;;;;;5157241;27;20042;-26
2023/09/09 00:04:03;;;;;;;37.00;33.05;;;16.70;99.90;;;;;;5156627;27;20095;-26
2023/09/09 00:06:28;;;;;;;44.72;38.90;;;16.60;99.90;;;;;;5155332;27;20046;-26
2023/09/09 00:08:54;;;;;;;52.53;41.42;;;16.60;99.90;;;;;;5138626;27;20046;-26
2023/09/09 00:11:20;;;;;;;47.35;40.30;;;16.60;99.90;;;;;;5156477;27;20117;-26
2023/09/09 00:13:45;;;;;;;61.08;50.08;;;16.70;99.90;;;;;;5157064;27;20519;-27
2023/09/09 00:16:12;;;;;;;55.83;47.35;;;16.60;99.90;;;;;;5157262;27;20047;-26
2023/09/09 00:18:38;;;;;;;66.28;51.83;;;16.70;99.90;;;;;;5156355;27;20078;-26
2023/09/09 00:21:04;;;;;;;75.95;57.22;;;16.70;99.90;;;;;;5156303;27;20058;-26
2023/09/09 00:23:30;;;;;;;64.53;53.78;;;16.80;99.90;;;;;;5156260;27;20095;-26
2023/09/09 00:25:56;;;;;;;65.65;55.17;;;16.90;99.90;;;;;;5155581;27;20035;-26
2023/09/09 00:28:23;;;;;;;69.10;54.58;;;17.00;99.90;;;;;;5156951;27;20039;-26
2023/09/09 00:30:49;;;;;;;69.70;55.25;;;17.00;99.90;;;;;;5155161;27;20540;-26
2023/09/09 00:33:14;;;;;;;53.00;41.50;;;17.10;99.90;;;;;;5156059;27;20046;-26
2023/09/09 00:35:40;;;;;;;47.60;40.03;;;16.90;99.90;;;;;;5154787;27;20098;-26
2023/09/09 00:38:07;;;;;;;50.03;42.65;;;16.70;99.90;;;;;;5154944;27;20039;-26
2023/09/09 00:40:33;;;;;;;50.35;41.80;;;16.80;99.90;;;;;;5155956;27;20054;-27
2023/09/09 00:42:59;;;;;;;61.05;45.75;;;16.80;99.90;;;;;;5154695;27;20571;-26
2023/09/09 00:45:26;;;;;;;56.55;41.80;;;16.80;99.90;;;;;;5156311;27;20082;-26
2023/09/09 00:47:52;;;;;;;52.35;41.47;;;17.00;99.90;;;;;;5154621;27;20042;-26
2023/09/09 00:50:20;;;;;;;38.10;33.10;;;16.90;99.90;;;;;;5154305;27;20383;-26
2023/09/09 00:52:46;;;;;;;39.05;34.58;;;16.70;99.90;;;;;;5155991;27;20110;-26
2023/09/09 00:55:13;;;;;;;46.05;36.33;;;16.70;99.90;;;;;;5156311;27;20055;-26
2023/09/09 00:57:39;;;;;;;43.97;35.15;;;16.80;99.90;;;;;;5155967;27;20095;-26
2023/09/09 01:00:11;;;;;;;43.60;38.28;;;16.90;99.90;;;;;;5155416;27;20038;-26
2023/09/09 01:02:38;;;;;;;36.38;32.47;;;16.80;99.90;;;;;;5155440;27;20047;-26
2023/09/09 01:05:07;;;;;;;36.15;31.95;;;16.80;99.90;;;;;;5154590;27;20042;-26
2023/09/09 01:07:47;;;;;;;41.38;35.17;;;16.80;99.90;;;;;;5155508;27;20039;-26
2023/09/09 01:10:14;;;;;;;41.05;34.67;;;16.90;99.90;;;;;;5155185;27;20492;-26
2023/09/09 01:12:42;;;;;;;38.63;31.08;;;16.90;99.90;;;;;;5155745;27;20046;-26
2023/09/09 01:15:09;;;;;;;39.35;32.22;;;16.90;99.90;;;;;;5155462;27;20046;-27
2023/09/09 01:17:36;;;;;;;40.97;35.38;;;16.90;99.90;;;;;;5155419;27;20476;-26
2023/09/09 01:20:11;;;;;;;37.67;32.72;;;16.90;99.90;;;;;;5154436;27;20163;-26
2023/09/09 01:22:38;;;;;;;37.55;32.42;;;17.00;99.90;;;;;;5154859;27;20047;-26
2023/09/09 01:25:05;;;;;;;42.30;35.65;;;17.00;99.90;;;;;;5154205;27;20480;-26
2023/09/09 01:27:31;;;;;;;35.13;28.70;;;17.00;99.90;;;;;;5155792;27;20046;-26
2023/09/09 01:29:56;;;;;;;38.45;32.50;;;17.00;99.90;;;;;;5154940;27;20095;-26
2023/09/09 01:32:22;;;;;;;35.08;30.90;;;17.00;99.90;;;;;;5154920;27;20485;-26
2023/09/09 01:34:49;;;;;;;39.10;32.08;;;16.90;99.90;;;;;;5154495;27;20046;-27
2023/09/09 01:37:15;;;;;;;33.55;28.58;;;16.90;99.90;;;;;;5154267;27;20058;-26
2023/09/09 01:39:40;;;;;;;38.88;32.90;;;16.90;99.90;;;;;;5137320;27;20051;-26
2023/09/09 01:42:06;;;;;;;35.78;30.33;;;16.90;99.90;;;;;;5136671;27;20039;-26
2023/09/09 01:44:32;;;;;;;41.05;33.90;;;16.90;99.90;;;;;;5155135;27;20480;-26
2023/09/09 01:46:57;;;;;;;43.80;35.08;;;16.90;99.90;;;;;;5154068;27;20045;-26
2023/09/09 01:49:23;;;;;;;42.08;35.10;;;16.90;99.90;;;;;;5153717;27;20058;-26
2023/09/09 01:51:49;;;;;;;40.80;33.13;;;16.90;99.90;;;;;;5155889;27;20062;-26
2023/09/09 01:54:14;;;;;;;41.72;34.40;;;16.90;99.90;;;;;;5137667;27;20046;-26
2023/09/09 01:56:40;;;;;;;40.75;34.67;;;16.90;99.90;;;;;;5154077;27;20051;-26
2023/09/09 01:59:06;;;;;;;47.67;36.67;;;16.80;99.90;;;;;;5155054;27;20547;-27
2023/09/09 02:01:32;;;;;;;39.75;34.50;;;16.80;99.90;;;;;;5154032;27;20041;-26
2023/09/09 02:03:57;;;;;;;43.80;35.20;;;16.80;99.90;;;;;;5154981;27;20480;-26
2023/09/09 02:06:23;;;;;;;45.75;34.60;;;16.80;99.90;;;;;;5154854;27;20047;-26
2023/09/09 02:08:49;;;;;;;48.15;38.85;;;16.80;99.90;;;;;;5153745;27;20095;-26
2023/09/09 02:11:14;;;;;;;49.40;39.08;;;16.80;99.90;;;;;;5153624;27;20042;-26
2023/09/09 02:13:40;;;;;;;40.72;33.30;;;16.80;99.90;;;;;;5158046;27;20038;-26
2023/09/09 02:16:07;;;;;;;48.03;37.70;;;16.80;99.90;;;;;;5141379;27;20074;-26
2023/09/09 02:18:37;;;;;;;40.17;33.60;;;16.80;99.90;;;;;;5158727;27;20038;-26
2023/09/09 02:21:04;;;;;;;47.35;37.03;;;16.80;99.90;;;;;;5158708;27;20125;-26
2023/09/09 02:23:29;;;;;;;47.47;38.67;;;16.80;99.90;;;;;;5157491;27;20135;-26
2023/09/09 02:25:56;;;;;;;42.58;35.92;;;16.80;99.90;;;;;;5158587;27;20125;-25
2023/09/09 02:28:21;;;;;;;40.08;32.15;;;16.80;99.90;;;;;;5159119;27;20136;-26
2023/09/09 02:30:48;;;;;;;45.70;36.38;;;16.80;99.90;;;;;;5158365;27;20038;-26
2023/09/09 02:33:14;;;;;;;38.22;31.00;;;16.80;99.90;;;;;;5157788;27;20047;-27
2023/09/09 02:35:44;;;;;;;43.17;35.88;;;16.70;99.90;;;;;;5157769;27;20601;-26
2023/09/09 02:38:10;;;;;;;39.83;33.42;;;16.70;99.90;;;;;;5158399;27;20067;-26
2023/09/09 02:40:36;;;;;;;43.08;35.33;;;16.70;99.90;;;;;;5158881;27;20047;-26
2023/09/09 02:43:02;;;;;;;39.45;33.83;;;16.60;99.90;;;;;;5158875;27;20047;-26
2023/09/09 02:45:28;;;;;;;44.00;34.75;;;16.60;99.90;;;;;;5158554;27;20433;-26
2023/09/09 02:47:53;;;;;;;44.67;35.53;;;16.70;99.90;;;;;;5156905;27;20121;-25
2023/09/09 02:50:19;;;;;;;48.58;37.80;;;16.60;99.90;;;;;;5157704;27;20145;-26
2023/09/09 02:52:48;;;;;;;47.40;37.95;;;16.60;99.90;;;;;;5158098;27;20412;-26
2023/09/09 02:55:14;;;;;;;42.95;35.42;;;16.60;99.90;;;;;;5156888;27;20045;-26
2023/09/09 02:57:39;;;;;;;43.58;36.08;;;16.60;99.90;;;;;;5156939;27;20043;-26
2023/09/09 03:00:07;;;;;;;46.47;37.60;;;16.60;99.90;;;;;;5158221;27;20046;-26
2023/09/09 03:02:33;;;;;;;43.03;35.95;;;16.60;99.90;;;;;;5157938;27;20046;-26
2023/09/09 03:04:59;;;;;;;43.40;34.70;;;16.60;99.90;;;;;;5157863;27;20365;-26
2023/09/09 03:07:24;;;;;;;41.67;34.13;;;16.60;99.90;;;;;;5157731;27;20388;-26
2023/09/09 03:09:50;;;;;;;41.75;35.38;;;16.60;99.90;;;;;;5157964;27;20043;-26
2023/09/09 03:12:20;;;;;;;47.17;38.88;;;16.50;99.90;;;;;;5140272;27;20361;-26
2023/09/09 03:14:47;;;;;;;40.08;35.10;;;16.50;99.90;;;;;;5158789;27;20110;-26
2023/09/09 03:17:13;;;;;;;38.80;32.88;;;16.60;99.90;;;;;;5157606;27;20083;-26
2023/09/09 03:19:39;;;;;;;44.05;37.20;;;16.60;99.90;;;;;;5157628;27;20058;-26
2023/09/09 03:22:05;;;;;;;47.70;37.35;;;16.60;99.90;;;;;;5156767;27;20035;-25
2023/09/09 03:24:30;;;;;;;48.25;36.22;;;16.60;99.90;;;;;;5156479;27;20044;-26
2023/09/09 03:26:56;;;;;;;46.60;37.42;;;16.60;99.90;;;;;;5157358;27;20042;-26
2023/09/09 03:29:22;;;;;;;47.90;36.72;;;16.60;99.90;;;;;;5158140;27;20118;-26
2023/09/09 03:31:48;;;;;;;50.50;39.15;;;16.60;99.90;;;;;;5157137;27;20456;-26
2023/09/09 03:34:13;;;;;;;50.83;39.85;;;16.60;99.90;;;;;;5139864;27;20050;-26
2023/09/09 03:36:40;;;;;;;53.72;40.70;;;16.60;99.90;;;;;;5157022;27;20463;-26
2023/09/09 03:39:06;;;;;;;48.17;40.13;;;16.60;99.90;;;;;;5157159;27;20129;-25
2023/09/09 03:41:31;;;;;;;48.58;38.50;;;16.70;99.90;;;;;;5155940;27;20053;-25
2023/09/09 03:43:57;;;;;;;46.58;39.97;;;16.70;99.90;;;;;;5157048;27;20043;-26
2023/09/09 03:46:23;;;;;;;49.95;39.75;;;16.70;99.90;;;;;;5156789;27;20496;-26
2023/09/09 03:48:49;;;;;;;44.75;37.63;;;16.70;99.90;;;;;;5156762;27;20049;-24
2023/09/09 03:51:15;;;;;;;50.25;41.47;;;16.60;99.90;;;;;;5157607;27;20504;-26
2023/09/09 03:53:41;;;;;;;47.35;38.78;;;16.60;99.90;;;;;;5156931;27;20046;-26
2023/09/09 03:56:07;;;;;;;52.38;40.58;;;16.60;99.90;;;;;;5156767;27;20069;-26
2023/09/09 03:58:33;;;;;;;46.58;37.42;;;16.60;99.90;;;;;;5155608;27;20054;-26
2023/09/09 04:01:08;;;;;;;49.78;40.50;;;16.60;99.90;;;;;;5156047;27;20039;-26
2023/09/09 04:03:34;;;;;;;46.22;36.58;;;16.50;99.90;;;;;;5138179;27;20051;-26
2023/09/09 04:06:09;;;;;;;46.05;37.58;;;16.50;99.90;;;;;;5138039;27;20054;-26
2023/09/09 04:08:36;;;;;;;42.47;35.65;;;16.50;99.90;;;;;;5156222;27;20031;-25
2023/09/09 04:11:05;;;;;;;45.97;36.95;;;16.40;99.90;;;;;;5156561;27;20084;-26
2023/09/09 04:13:32;;;;;;;50.90;38.28;;;16.50;99.90;;;;;;5156497;27;20038;-26
2023/09/09 04:15:59;;;;;;;49.05;39.92;;;16.40;99.90;;;;;;5121338;27;20042;-26
2023/09/09 04:18:26;;;;;;;52.00;42.60;;;16.40;99.90;;;;;;5156464;27;20042;-26
2023/09/09 04:20:52;;;;;;;47.42;38.70;;;16.40;99.90;;;;;;5156396;27;20042;-25
2023/09/09 04:23:18;;;;;;;51.03;41.17;;;16.30;99.90;;;;;;5156289;27;20095;-26
2023/09/09 04:25:45;;;;;;;51.95;41.75;;;16.20;99.90;;;;;;5156224;27;20046;-25
2023/09/09 04:28:11;;;;;;;57.10;42.72;;;16.30;99.90;;;;;;5154923;27;20043;-25
2023/09/09 04:30:41;;;;;;;54.25;42.25;;;16.20;99.90;;;;;;5156149;27;20050;-25
2023/09/09 04:33:08;;;;;;;52.50;41.90;;;16.20;99.90;;;;;;5154858;27;20049;-25
2023/09/09 04:35:34;;;;;;;51.17;38.60;;;16.10;99.90;;;;;;5155925;27;20099;-24
2023/09/09 04:38:00;;;;;;;60.63;42.85;;;16.10;99.90;;;;;;5156033;27;20051;-26
2023/09/09 04:40:26;;;;;;;60.08;46.33;;;16.10;99.90;;;;;;5155972;27;20073;-25
2023/09/09 04:42:52;;;;;;;60.85;46.20;;;16.10;99.90;;;;;;5156773;27;20407;-26
2023/09/09 04:45:19;;;;;;;51.55;42.67;;;16.10;99.90;;;;;;5154856;27;20122;-26
2023/09/09 04:47:44;;;;;;;54.30;43.00;;;16.10;99.90;;;;;;5154677;27;20046;-26
2023/09/09 04:50:10;;;;;;;66.38;48.60;;;16.10;99.90;;;;;;5155788;27;20141;-25
2023/09/09 04:52:36;;;;;;;67.28;48.30;;;16.10;99.90;;;;;;5155037;27;20089;-24
2023/09/09 04:55:03;;;;;;;67.60;49.05;;;16.10;99.90;;;;;;5137502;27;20524;-26
2023/09/09 04:57:28;;;;;;;125.13;34.05;;;16.00;99.90;;;;;;5155695;27;20078;-26
2023/09/09 04:59:54;;;;;;;52.22;31.77;;;15.90;99.90;;;;;;5154522;27;20082;-26
2023/09/09 05:02:21;;;;;;;62.15;37.25;;;15.40;99.90;;;;;;5137341;27;20137;-26
2023/09/09 05:04:47;;;;;;;66.25;36.45;;;15.20;99.90;;;;;;5137200;27;20042;-26
2023/09/09 05:07:12;;;;;;;56.55;33.03;;;15.00;99.90;;;;;;5156030;27;20039;-26
2023/09/09 05:09:38;;;;;;;122.15;37.80;;;14.90;99.90;;;;;;5155532;27;20130;-26
2023/09/09 05:12:04;;;;;;;31.90;26.92;;;14.90;99.90;;;;;;5155199;27;20039;-26
2023/09/09 05:14:30;;;;;;;32.40;25.98;;;14.70;99.90;;;;;;5155455;27;20133;-25
2023/09/09 05:16:55;;;;;;;29.88;25.88;;;14.70;99.90;;;;;;5136940;27;20130;-25
2023/09/09 05:19:22;;;;;;;39.70;32.78;;;14.70;99.90;;;;;;5155686;27;20422;-25
2023/09/09 05:21:48;;;;;;;39.92;32.17;;;14.70;99.90;;;;;;5154223;27;20050;-25
2023/09/09 05:24:14;;;;;;;67.13;44.70;;;14.80;99.90;;;;;;5154679;27;20054;-25
2023/09/09 05:26:40;;;;;;;53.13;39.08;;;15.00;99.90;;;;;;5154134;27;20515;-25
2023/09/09 05:29:06;;;;;;;39.55;32.67;;;15.00;99.90;;;;;;5137389;27;20039;-26
2023/09/09 05:31:32;;;;;;;43.70;34.97;;;15.10;99.90;;;;;;5137080;27;20047;-26
2023/09/09 05:33:57;;;;;;;44.45;37.90;;;15.20;99.90;;;;;;5154579;27;20043;-26
2023/09/09 05:36:24;;;;;;;41.75;35.22;;;15.20;99.90;;;;;;5154076;27;20042;-26
2023/09/09 05:38:49;;;;;;;47.60;37.08;;;15.20;99.90;;;;;;5155238;27;20046;-25
2023/09/09 05:41:15;;;;;;;50.42;40.45;;;15.30;99.90;;;;;;5155457;27;20046;-26
2023/09/09 05:43:41;;;;;;;44.63;37.53;;;15.40;99.90;;;;;;5154309;27;20537;-26
2023/09/09 05:46:06;;;;;;;44.80;35.30;;;15.40;99.90;;;;;;5155046;27;20042;-26
2023/09/09 05:48:32;;;;;;;50.67;40.53;;;15.50;99.90;;;;;;5157142;27;20046;-26
2023/09/09 05:50:58;;;;;;;60.83;42.53;;;15.50;99.90;;;;;;5158771;27;20588;-26
2023/09/09 05:53:23;;;;;;;25.20;22.65;;;15.60;99.90;;;;;;5159071;27;20049;-26
2023/09/09 05:55:49;;;;;;;217.05;43.30;;;15.60;99.90;;;;;;5158039;27;20046;-26
2023/09/09 05:58:15;;;;;;;45.38;25.98;;;15.60;99.90;;;;;;5159194;27;20043;-26
2023/09/09 06:00:41;;;;;;;24.38;22.08;;;15.60;99.90;;;;;;5157916;27;20039;-26
2023/09/09 06:03:07;;;;;;;22.13;20.23;;;15.60;99.90;;;;;;5159071;27;20103;-26
2023/09/09 06:05:33;;;;;;;29.17;26.15;;;15.70;99.90;;;;;;5157547;27;20046;-26
2023/09/09 06:07:59;;;;;;;32.33;29.05;;;15.70;99.90;;;;;;5123402;27;20038;-26
2023/09/09 06:10:25;;;;;;;34.00;29.73;;;15.80;99.90;;;;;;5159424;27;20121;-26
2023/09/09 06:12:50;;;;;;;37.55;32.50;;;15.90;99.90;;;;;;5157862;27;20046;-26
2023/09/09 06:15:16;;;;;;;27.75;24.95;;;15.90;99.90;;;;;;5158901;27;20137;-26
2023/09/09 06:17:42;;;;;;;38.67;32.67;;;16.00;99.90;;;;;;5158824;27;20152;-26
2023/09/09 06:20:09;;;;;;;32.50;29.05;;;16.00;99.90;;;;;;5157811;27;20083;-26
2023/09/09 06:22:35;;;;;;;43.72;35.97;;;16.20;99.90;;;;;;5158142;27;20047;-26
2023/09/09 06:25:01;;;;;;;47.88;40.88;;;16.20;99.90;;;;;;5158676;27;20045;-26
2023/09/09 06:27:27;;;;;;;55.33;46.53;;;16.30;99.90;;;;;;5158195;27;20091;-26
2023/09/09 06:29:53;;;;;;;59.20;45.83;;;16.40;99.90;;;;;;5158730;27;20540;-26
2023/09/09 06:32:18;;;;;;;55.97;44.67;;;16.60;99.90;;;;;;5157319;27;20126;-25
2023/09/09 06:34:44;;;;;;;61.50;46.67;;;16.70;99.90;;;;;;5158279;27;20039;-26
2023/09/09 06:37:10;;;;;;;51.08;41.63;;;16.80;99.90;;;;;;5139952;27;20045;-26
2023/09/09 06:39:36;;;;;;;47.08;39.83;;;16.90;99.90;;;;;;5158424;27;20047;-26
2023/09/09 06:42:02;;;;;;;57.67;46.30;;;17.00;99.90;;;;;;5157347;27;20046;-25
2023/09/09 06:44:28;;;;;;;53.85;40.28;;;17.20;99.90;;;;;;5140943;27;20047;-27
2023/09/09 06:46:54;;;;;;;45.70;40.72;;;17.30;99.90;;;;;;5158011;27;20045;-26
2023/09/09 06:49:19;;;;;;;51.55;40.90;;;17.40;99.90;;;;;;5139509;27;20067;-26
2023/09/09 06:51:46;;;;;;;53.85;42.40;;;17.50;99.90;;;;;;5158122;27;20054;-26
2023/09/09 06:54:12;;;;;;;43.58;38.30;;;17.60;99.90;;;;;;5139818;27;20131;-26
2023/09/09 06:56:37;;;;;;;44.90;39.30;;;17.70;99.90;;;;;;5157662;27;20112;-26
2023/09/09 06:59:03;;;;;;;44.95;39.50;;;17.90;99.90;;;;;;5156852;27;20039;-26
2023/09/09 07:01:29;;;;;;;56.63;39.85;;;18.00;99.90;;;;;;5157928;27;20419;-26
2023/09/09 07:03:55;;;;;;;47.60;41.58;;;18.10;99.90;;;;;;5139526;27;20047;-26
2023/09/09 07:06:21;;;;;;;46.70;41.55;;;18.30;99.90;;;;;;5139767;27;20035;-26
2023/09/09 07:08:47;;;;;;;43.65;37.33;;;18.40;99.90;;;;;;5157948;27;20046;-26
2023/09/09 07:11:13;;;;;;;41.45;36.92;;;18.50;99.90;;;;;;5156769;27;20050;-26
2023/09/09 07:13:39;;;;;;;43.35;36.53;;;18.60;99.90;;;;;;5158283;27;20054;-26
2023/09/09 07:16:05;;;;;;;41.58;34.97;;;18.70;99.90;;;;;;5157667;27;20047;-27
2023/09/09 07:18:30;;;;;;;37.72;33.47;;;18.80;99.90;;;;;;5157581;27;20039;-25
2023/09/09 07:20:57;;;;;;;40.28;33.97;;;18.90;99.90;;;;;;5157212;27;20042;-26
2023/09/09 07:23:23;;;;;;;39.17;35.17;;;19.00;99.90;;;;;;5156977;27;20096;-26
2023/09/09 07:25:49;;;;;;;45.55;37.67;;;19.10;99.90;;;;;;5157468;27;20534;-26
2023/09/09 07:28:15;;;;;;;39.22;35.00;;;19.30;99.90;;;;;;5156976;27;20065;-26
2023/09/09 07:30:40;;;;;;;42.70;34.47;;;19.40;99.90;;;;;;5157343;27;20046;-26
2023/09/09 07:33:06;;;;;;;39.05;34.38;;;19.50;99.90;;;;;;5157264;27;20046;-26
2023/09/09 07:35:35;;;;;;;37.83;33.92;;;19.60;99.90;;;;;;5157536;27;20041;-26
2023/09/09 07:38:04;;;;;;;38.42;34.35;;;19.70;99.90;;;;;;5157558;27;20560;-26
2023/09/09 07:40:29;;;;;;;38.95;34.78;;;19.80;99.90;;;;;;5156238;27;20047;-26
2023/09/09 07:42:55;;;;;;;39.28;34.53;;;19.90;99.90;;;;;;5156869;27;20058;-26
2023/09/09 07:45:21;;;;;;;44.70;39.35;;;20.10;99.90;;;;;;5156943;27;20072;-26
2023/09/09 07:47:47;;;;;;;39.05;33.03;;;20.20;99.90;;;;;;5156652;27;20039;-26
2023/09/09 07:50:13;;;;;;;38.90;34.35;;;20.20;99.90;;;;;;5155588;27;20062;-26
2023/09/09 07:52:39;;;;;;;37.67;33.67;;;20.30;99.90;;;;;;5155732;27;20061;-26
2023/09/09 07:55:05;;;;;;;35.70;32.00;;;20.50;99.90;;;;;;5121603;27;20465;-26
2023/09/09 07:57:30;;;;;;;36.28;32.58;;;20.60;99.90;;;;;;5157112;27;20127;-26
2023/09/09 07:59:56;;;;;;;35.58;31.88;;;20.70;99.90;;;;;;5156465;27;20130;-26
2023/09/09 08:02:22;;;;;;;36.20;32.65;;;20.80;99.90;;;;;;5156701;27;20042;-26
2023/09/09 08:04:48;;;;;;;32.78;29.00;;;20.90;99.90;;;;;;5156978;27;20039;-26
2023/09/09 08:07:13;;;;;;;33.17;29.73;;;21.00;99.90;;;;;;5155448;27;20043;-26
2023/09/09 08:09:39;;;;;;;32.08;28.73;;;21.20;99.90;;;;;;5156157;27;20054;-26
2023/09/09 08:12:05;;;;;;;33.63;30.15;;;21.20;99.90;;;;;;5155361;27;20116;-27
2023/09/09 08:14:31;;;;;;;32.88;29.27;;;21.40;99.90;;;;;;5157103;27;20042;-26
2023/09/09 08:16:57;;;;;;;31.50;28.05;;;21.50;99.90;;;;;;5156756;27;20050;-26
2023/09/09 08:19:22;;;;;;;36.42;28.45;;;21.60;99.90;;;;;;5155189;27;20034;-26
2023/09/09 08:21:49;;;;;;;34.28;30.45;;;21.70;99.90;;;;;;5156297;27;20046;-26
2023/09/09 08:24:15;;;;;;;32.45;29.05;;;21.90;99.90;;;;;;5155038;27;20047;-26
2023/09/09 08:26:40;;;;;;;32.03;28.38;;;22.00;99.90;;;;;;5156110;27;20045;-26
2023/09/09 08:29:06;;;;;;;29.23;26.08;;;22.20;99.90;;;;;;5137962;27;20069;-26
2023/09/09 08:31:32;;;;;;;35.17;29.33;;;22.40;99.90;;;;;;5155467;27;20099;-27
2023/09/09 08:33:58;;;;;;;32.55;29.10;;;22.40;99.90;;;;;;5138177;27;20049;-26
2023/09/09 08:36:25;;;;;;;31.20;27.92;;;22.50;99.90;;;;;;5154884;27;20046;-26
2023/09/09 08:38:56;;;;;;;30.00;26.55;;;22.60;99.90;;;;;;5155687;27;20395;-26
2023/09/09 08:41:32;;;;;;;33.83;28.30;;;22.80;99.90;;;;;;5156063;27;20045;-26
2023/09/09 08:44:25;;;;;;;30.63;27.38;;;22.90;99.90;;;;;;5156890;27;20043;-26
2023/09/09 08:46:52;;;;;;;;;;;23.00;99.90;;;;;;5155531;27;20097;-27
2023/09/09 08:49:23;;;;;;;31.25;27.90;;;23.00;99.90;;;;;;5155653;27;20344;-26
2023/09/09 08:52:01;;;;;;;30.13;27.05;;;23.10;99.90;;;;;;5156723;27;20185;-26
2023/09/09 08:54:27;;;;;;;34.42;26.13;;;23.30;99.90;;;;;;5156104;27;20490;-26
2023/09/09 08:56:54;;;;;;;33.28;29.80;;;23.40;99.90;;;;;;5155340;27;20488;-26
2023/09/09 08:59:21;;;;;;;37.75;29.83;;;23.50;99.90;;;;;;5155714;27;20064;-26
2023/09/09 09:01:49;;;;;;;33.03;28.92;;;23.60;99.90;;;;;;5137487;27;20050;-26
2023/09/09 09:04:17;;;;;;;33.65;30.25;;;23.70;99.90;;;;;;5154483;27;20046;-26
2023/09/09 09:06:47;;;;;;;33.10;29.77;;;23.90;99.90;;;;;;5155504;27;20043;-27
2023/09/09 09:09:16;;;;;;;31.40;28.02;;;24.40;99.90;;;;;;5155906;27;20097;-26
2023/09/09 09:11:43;;;;;;;32.20;28.75;;;25.50;99.90;;;;;;5137301;27;20126;-26
2023/09/09 09:14:09;;;;;;;37.63;28.42;;;26.20;99.90;;;;;;5155531;27;20074;-26
2023/09/09 09:16:42;;;;;;;31.80;28.10;;;26.40;1.00;;;;;;5154425;27;20465;-26
2023/09/09 09:19:21;;;;;;;31.52;28.23;;;26.60;99.90;;;;;;5155995;27;20045;-27
2023/09/09 09:21:47;;;;;;;31.85;28.58;;;26.70;14.70;;;;;;5154598;27;20054;-26
2023/09/09 09:24:13;;;;;;;32.90;29.48;;;27.10;99.90;;;;;;5154115;27;20038;-26
2023/09/09 09:26:39;;;;;;;36.00;32.20;;;27.40;99.90;;;;;;5155391;27;20057;-27
2023/09/09 09:29:05;;;;;;;38.78;33.05;;;27.40;99.90;;;;;;5155361;27;20042;-27
2023/09/09 09:31:31;;;;;;;34.13;30.52;;;27.40;99.90;;;;;;5155284;27;20042;-27
2023/09/09 09:33:58;;;;;;;36.05;32.33;;;27.70;1.00;;;;;;5154266;27;20042;-27
2023/09/09 09:36:24;;;;;;;35.75;32.15;;;27.60;99.90;;;;;;5154980;27;20511;-26
2023/09/09 09:38:50;;;;;;;33.53;29.90;;;27.80;1.00;;;;;;5154523;27;20058;-26
2023/09/09 09:41:17;;;;;;;33.90;30.40;;;27.60;91.40;;;;;;5155265;27;20494;-26
2023/09/09 09:43:44;;;;;;;34.97;31.35;;;27.70;99.90;;;;;;5155293;27;20128;-27
2023/09/09 09:46:20;;;;;;;29.27;26.27;;;27.80;1.00;;;;;;5155104;27;20051;-27
2023/09/09 09:48:47;;;;;;;31.70;28.40;;;27.90;1.00;;;;;;5155117;27;20483;-27
2023/09/09 09:51:13;;;;;;;31.10;27.92;;;27.70;18.60;;;;;;5155470;27;20129;-27
2023/09/09 09:53:59;;;;;;;29.05;25.90;;;27.70;99.90;;;;;;5155143;27;20039;-27
2023/09/09 09:56:24;;;;;;;27.85;25.08;;;27.50;1.00;;;;;;5153290;27;20059;-26
2023/09/09 09:58:51;;;;;;;32.30;26.42;;;28.00;56.50;;;;;;5155078;27;20049;-26
2023/09/09 10:01:17;;;;;;;26.20;21.20;;;28.00;1.00;;;;;;5155650;27;20394;-27
2023/09/09 10:03:57;;;;;;;26.15;23.45;;;28.10;99.90;;;;;;5155676;27;20043;-27
2023/09/09 10:06:28;;;;;;;24.80;21.63;;;28.70;1.00;;;;;;5155335;27;20042;-27
2023/09/09 10:09:09;;;;;;;25.13;22.52;;;28.70;1.00;;;;;;5153935;27;20510;-26
2023/09/09 10:11:53;;;;;;;26.10;20.80;;;28.90;99.90;;;;;;5154770;27;20488;-27
2023/09/09 10:14:24;;;;;;;21.40;19.25;;;29.20;1.00;;;;;;5155842;27;20051;-27
2023/09/09 10:16:54;;;;;;;20.75;18.58;;;29.00;1.00;;;;;;5155809;27;20050;-27
2023/09/09 10:19:22;;;;;;;35.42;22.75;;;29.10;99.90;;;;;;5153912;27;20392;-27
2023/09/09 10:21:48;;;;;;;23.00;20.60;;;28.80;1.00;;;;;;5155702;27;20087;-27
2023/09/09 10:24:16;;;;;;;22.95;20.55;;;28.60;1.00;;;;;;5154884;27;20046;-27
2023/09/09 10:26:43;;;;;;;24.23;21.67;;;28.50;4.50;;;;;;5154029;27;20046;-27
2023/09/09 10:29:09;;;;;;;31.85;26.30;;;28.70;1.00;;;;;;5154822;27;20054;-27
2023/09/09 10:31:36;;;;;;;27.95;24.83;;;28.70;1.00;;;;;;5154774;27;20046;-27
2023/09/09 10:34:03;;;;;;;24.92;22.15;;;28.80;1.00;;;;;;5156861;27;20089;-27
2023/09/09 10:36:35;;;;;;;25.05;22.63;;;28.80;1.00;;;;;;5159034;27;20057;-28
2023/09/09 10:39:02;;;;;;;29.30;25.52;;;28.80;99.90;;;;;;5140924;27;20050;-28
2023/09/09 10:41:29;;;;;;;30.13;26.80;;;29.10;99.90;;;;;;5159156;27;20048;-28
2023/09/09 10:43:55;;;;;;;29.35;25.92;;;29.20;99.90;;;;;;5158307;27;20058;-28
2023/09/09 10:46:34;;;;;;;30.98;27.90;;;29.10;99.90;;;;;;5158014;27;20043;-27
2023/09/09 10:49:03;;;;;;;33.55;30.25;;;29.30;40.40;;;;;;5158684;27;20504;-27
2023/09/09 10:51:42;;;;;;;30.50;25.95;;;29.70;1.00;;;;;;5156469;27;20046;-27
2023/09/09 10:54:11;;;;;;;30.55;26.83;;;29.80;1.00;;;;;;5157177;27;20468;-27
2023/09/09 10:57:02;;;;;;;28.02;24.38;;;29.40;1.00;;;;;;5157325;27;20051;-28
2023/09/09 10:59:34;;;;;;;25.08;22.52;;;29.30;99.90;;;;;;5158260;27;20492;-28
2023/09/09 11:02:18;;;;;;;23.73;21.42;;;29.40;99.90;;;;;;5158840;27;20103;-28
2023/09/09 11:05:13;;;;;;;20.77;17.48;;;29.70;99.90;;;;;;5157972;27;20484;-27
2023/09/09 11:07:39;;;;;;;18.27;16.42;;;29.90;99.90;;;;;;5157611;27;20384;-27
2023/09/09 11:10:07;;;;;;;20.23;17.25;;;29.50;99.90;;;;;;5157527;27;20555;-28
2023/09/09 11:12:32;;;;;;;17.67;15.77;;;29.20;99.90;;;;;;5156822;27;20115;-28
2023/09/09 11:15:09;;;;;;;21.45;18.25;;;29.40;99.90;;;;;;5157762;27;20084;-28
2023/09/09 11:17:42;;;;;;;21.38;18.98;;;29.40;99.90;;;;;;5158294;27;20038;-27
2023/09/09 11:20:12;;;;;;;19.73;17.63;;;29.60;99.90;;;;;;5157009;27;20047;-27
2023/09/09 11:22:42;;;;;;;22.17;19.98;;;29.60;99.90;;;;;;5156754;27;20107;-27
2023/09/09 11:25:08;;;;;;;21.58;19.23;;;29.90;1.00;;;;;;5157537;27;20054;-27
2023/09/09 11:27:34;;;;;;;16.85;14.95;;;29.90;99.90;;;;;;5157713;27;20046;-28
2023/09/09 11:30:00;;;;;;;16.55;14.88;;;30.10;99.90;;;;;;5157410;27;20051;-27
2023/09/09 11:32:28;;;;;;;16.75;15.05;;;29.90;99.90;;;;;;5157430;27;20498;-28
2023/09/09 11:34:55;;;;;;;16.30;14.65;;;29.70;99.90;;;;;;5156219;27;20047;-28
2023/09/09 11:37:24;;;;;;;16.02;14.32;;;30.10;99.90;;;;;;5155980;27;20042;-29
2023/09/09 11:39:57;;;;;;;13.85;12.45;;;30.30;1.00;;;;;;5157258;27;20042;-27
2023/09/09 11:42:23;;;;;;;15.27;11.38;;;30.60;1.00;;;;;;5157180;27;20438;-28
2023/09/09 11:44:49;;;;;;;12.35;10.38;;;30.80;99.90;;;;;;5156337;27;20044;-28
2023/09/09 11:47:16;;;;;;;15.07;11.15;;;30.20;99.90;;;;;;5156966;27;20087;-27
2023/09/09 11:49:44;;;;;;;14.68;10.18;;;30.10;1.00;;;;;;5156740;27;20057;-27
2023/09/09 11:52:10;;;;;;;11.15;9.63;;;29.80;99.90;;;;;;5157021;27;20046;-28
2023/09/09 11:54:36;;;;;;;14.55;10.82;;;29.90;99.90;;;;;;5139150;27;20099;-28
2023/09/09 11:57:07;;;;;;;12.65;11.35;;;29.50;1.00;;;;;;5156979;27;20513;-27
2023/09/09 11:59:47;;;;;;;10.82;9.73;;;29.30;99.90;;;;;;5157680;27;20357;-27
2023/09/09 12:02:20;;;;;;;9.80;8.90;;;29.40;1.00;;;;;;5156804;27;20046;-28
2023/09/09 12:05:01;;;;;;;11.90;10.10;;;29.50;99.90;;;;;;5155525;27;20078;-28
2023/09/09 12:07:32;;;;;;;11.77;10.27;;;29.60;99.90;;;;;;5156973;27;20066;-28
2023/09/09 12:09:59;;;;;;;13.05;9.07;;;30.20;1.00;;;;;;5155535;27;20078;-28
2023/09/09 12:12:25;;;;;;;13.68;10.48;;;30.00;1.00;;;;;;5155290;27;20126;-28
2023/09/09 12:14:53;;;;;;;9.90;9.00;;;29.80;99.90;;;;;;5156519;27;20050;-28
2023/09/09 12:17:19;;;;;;;10.73;8.68;;;29.90;1.00;;;;;;5155454;27;20090;-27
2023/09/09 12:19:57;;;;;;;10.55;9.40;;;29.90;1.00;;;;;;5156479;27;20046;-28
2023/09/09 12:22:42;;;;;;;11.32;9.77;;;29.70;99.90;;;;;;5156729;27;20179;-28
2023/09/09 12:25:29;;;;;;;11.43;10.23;;;29.70;1.00;;;;;;5156418;27;20094;-28
2023/09/09 12:27:54;;;;;;;13.55;9.75;;;29.90;1.00;;;;;;5156569;27;20474;-28
2023/09/09 12:30:37;;;;;;;11.10;8.98;;;30.20;1.00;;;;;;5156793;27;20058;-30